Villa El Recreo, Puerto Rico
Current Conditions -  °F | °C
As of 7:53 PM on Saturday 25 Oct 2014 (Local Time) from TJNR Reporting Station
Clear Clear  
Wind Chill: 82°   Ceiling: Unl
Heat Index: 89°   Visibility: 10mi
Dew Point: 75°   Wind: 6mph
Humidity: 79%   Direction: 190°S
Pressure: 29.9"   Gusts: NA
Location:  18.0547°N, 65.8738°W
Report Text: TJNR 252353Z AUTO 19005KT 10SM CLR 28/24 A2990 RMK AO2 SLP126 T02780239 10322 20278 53009 $
Loading
Personal Weather Stations






























Interactive Weather Map New forecast layout! Learn more

10-Day Weather Forecast

Advertisements
Track Severe Weather on mobile